sensor_id;sensor_type;location;lat;lon;timestamp;P1;durP1;ratioP1;P2;durP2;ratioP2
83807;SDS011;73824;40.292;17.998;2024-03-08T00:00:10;14.18;;;5.18;;
83807;SDS011;73824;40.292;17.998;2024-03-08T00:02:40;12.27;;;4.97;;
83807;SDS011;73824;40.292;17.998;2024-03-08T00:05:06;12.32;;;5.15;;
83807;SDS011;73824;40.292;17.998;2024-03-08T00:07:36;26.63;;;6.70;;
83807;SDS011;73824;40.292;17.998;2024-03-08T00:10:09;15.93;;;6.05;;
83807;SDS011;73824;40.292;17.998;2024-03-08T00:12:39;12.55;;;4.93;;
83807;SDS011;73824;40.292;17.998;2024-03-08T00:15:15;13.67;;;5.07;;
83807;SDS011;73824;40.292;17.998;2024-03-08T00:17:42;12.80;;;4.68;;
83807;SDS011;73824;40.292;17.998;2024-03-08T00:20:09;14.40;;;5.18;;
83807;SDS011;73824;40.292;17.998;2024-03-08T00:22:35;12.43;;;4.07;;
83807;SDS011;73824;40.292;17.998;2024-03-08T00:25:01;10.57;;;3.73;;
83807;SDS011;73824;40.292;17.998;2024-03-08T00:27:28;10.38;;;3.85;;
83807;SDS011;73824;40.292;17.998;2024-03-08T00:29:55;12.60;;;4.43;;
83807;SDS011;73824;40.292;17.998;2024-03-08T00:32:21;15.90;;;5.85;;
83807;SDS011;73824;40.292;17.998;2024-03-08T00:34:49;14.88;;;5.07;;
83807;SDS011;73824;40.292;17.998;2024-03-08T00:37:17;11.80;;;3.97;;
83807;SDS011;73824;40.292;17.998;2024-03-08T00:39:42;11.00;;;3.35;;
83807;SDS011;73824;40.292;17.998;2024-03-08T00:42:08;7.65;;;2.53;;
83807;SDS011;73824;40.292;17.998;2024-03-08T00:44:34;7.90;;;2.60;;
83807;SDS011;73824;40.292;17.998;2024-03-08T00:46:59;8.05;;;2.55;;
83807;SDS011;73824;40.292;17.998;2024-03-08T00:49:25;6.88;;;2.38;;
83807;SDS011;73824;40.292;17.998;2024-03-08T00:51:51;9.23;;;2.47;;
83807;SDS011;73824;40.292;17.998;2024-03-08T00:54:16;6.28;;;2.22;;
83807;SDS011;73824;40.292;17.998;2024-03-08T00:56:42;9.03;;;2.37;;
83807;SDS011;73824;40.292;17.998;2024-03-08T00:59:08;9.80;;;3.15;;
83807;SDS011;73824;40.292;17.998;2024-03-08T01:01:36;8.10;;;2.40;;
83807;SDS011;73824;40.292;17.998;2024-03-08T01:04:02;9.57;;;2.80;;
83807;SDS011;73824;40.292;17.998;2024-03-08T01:06:28;8.18;;;2.75;;
83807;SDS011;73824;40.292;17.998;2024-03-08T01:08:53;8.00;;;3.00;;
83807;SDS011;73824;40.292;17.998;2024-03-08T01:11:19;8.03;;;2.83;;
83807;SDS011;73824;40.292;17.998;2024-03-08T01:13:45;6.88;;;2.33;;
83807;SDS011;73824;40.292;17.998;2024-03-08T01:16:12;6.90;;;2.20;;
83807;SDS011;73824;40.292;17.998;2024-03-08T01:18:38;5.72;;;2.00;;
83807;SDS011;73824;40.292;17.998;2024-03-08T01:21:04;9.48;;;3.30;;
83807;SDS011;73824;40.292;17.998;2024-03-08T01:23:32;7.70;;;2.10;;
83807;SDS011;73824;40.292;17.998;2024-03-08T01:25:59;8.70;;;2.05;;
83807;SDS011;73824;40.292;17.998;2024-03-08T01:28:27;7.88;;;2.08;;
83807;SDS011;73824;40.292;17.998;2024-03-08T01:30:53;6.75;;;1.30;;
83807;SDS011;73824;40.292;17.998;2024-03-08T01:33:25;7.15;;;1.48;;
83807;SDS011;73824;40.292;17.998;2024-03-08T01:35:52;7.13;;;1.53;;
83807;SDS011;73824;40.292;17.998;2024-03-08T01:38:22;6.68;;;1.13;;
83807;SDS011;73824;40.292;17.998;2024-03-08T01:40:47;5.40;;;1.20;;
83807;SDS011;73824;40.292;17.998;2024-03-08T01:43:25;6.50;;;1.30;;
83807;SDS011;73824;40.292;17.998;2024-03-08T01:45:55;6.30;;;1.30;;
83807;SDS011;73824;40.292;17.998;2024-03-08T01:48:25;7.72;;;1.45;;
83807;SDS011;73824;40.292;17.998;2024-03-08T01:50:52;7.75;;;1.50;;
83807;SDS011;73824;40.292;17.998;2024-03-08T01:53:19;8.65;;;1.40;;
83807;SDS011;73824;40.292;17.998;2024-03-08T01:55:46;6.77;;;1.50;;
83807;SDS011;73824;40.292;17.998;2024-03-08T01:58:13;7.80;;;1.70;;
83807;SDS011;73824;40.292;17.998;2024-03-08T02:00:42;8.23;;;1.67;;
83807;SDS011;73824;40.292;17.998;2024-03-08T02:03:10;7.70;;;2.00;;
83807;SDS011;73824;40.292;17.998;2024-03-08T02:05:40;7.00;;;1.63;;
83807;SDS011;73824;40.292;17.998;2024-03-08T02:08:06;9.15;;;1.98;;
83807;SDS011;73824;40.292;17.998;2024-03-08T02:15:54;8.57;;;1.73;;
83807;SDS011;73824;40.292;17.998;2024-03-08T02:18:21;6.83;;;1.60;;
83807;SDS011;73824;40.292;17.998;2024-03-08T02:23:27;7.90;;;1.58;;
83807;SDS011;73824;40.292;17.998;2024-03-08T02:25:54;8.77;;;1.60;;
83807;SDS011;73824;40.292;17.998;2024-03-08T02:28:21;7.03;;;1.48;;
83807;SDS011;73824;40.292;17.998;2024-03-08T02:30:48;6.93;;;1.77;;
83807;SDS011;73824;40.292;17.998;2024-03-08T02:33:15;8.48;;;1.88;;
83807;SDS011;73824;40.292;17.998;2024-03-08T02:35:45;9.93;;;2.03;;
83807;SDS011;73824;40.292;17.998;2024-03-08T02:38:12;8.65;;;2.70;;
83807;SDS011;73824;40.292;17.998;2024-03-08T02:40:38;8.20;;;1.95;;
83807;SDS011;73824;40.292;17.998;2024-03-08T02:43:04;7.83;;;2.10;;
83807;SDS011;73824;40.292;17.998;2024-03-08T02:45:30;9.75;;;2.30;;
83807;SDS011;73824;40.292;17.998;2024-03-08T02:48:00;7.93;;;2.08;;
83807;SDS011;73824;40.292;17.998;2024-03-08T02:50:25;7.10;;;2.63;;
83807;SDS011;73824;40.292;17.998;2024-03-08T02:52:51;7.90;;;2.42;;
83807;SDS011;73824;40.292;17.998;2024-03-08T02:55:17;8.27;;;2.63;;
83807;SDS011;73824;40.292;17.998;2024-03-08T02:57:42;9.60;;;2.83;;
83807;SDS011;73824;40.292;17.998;2024-03-08T03:00:09;8.55;;;2.60;;
83807;SDS011;73824;40.292;17.998;2024-03-08T03:02:35;9.68;;;2.78;;
83807;SDS011;73824;40.292;17.998;2024-03-08T03:05:02;9.45;;;3.25;;
83807;SDS011;73824;40.292;17.998;2024-03-08T03:07:31;8.43;;;2.60;;
83807;SDS011;73824;40.292;17.998;2024-03-08T03:09:58;7.93;;;2.78;;
83807;SDS011;73824;40.292;17.998;2024-03-08T03:12:25;8.52;;;2.83;;
83807;SDS011;73824;40.292;17.998;2024-03-08T03:14:54;9.50;;;2.78;;
83807;SDS011;73824;40.292;17.998;2024-03-08T03:17:22;8.40;;;2.70;;
83807;SDS011;73824;40.292;17.998;2024-03-08T03:19:51;8.77;;;2.70;;
83807;SDS011;73824;40.292;17.998;2024-03-08T03:22:17;10.38;;;2.78;;
83807;SDS011;73824;40.292;17.998;2024-03-08T03:24:44;11.15;;;3.13;;
83807;SDS011;73824;40.292;17.998;2024-03-08T03:27:13;9.57;;;2.83;;
83807;SDS011;73824;40.292;17.998;2024-03-08T03:29:40;8.45;;;2.60;;
83807;SDS011;73824;40.292;17.998;2024-03-08T03:32:14;10.07;;;2.97;;
83807;SDS011;73824;40.292;17.998;2024-03-08T03:34:41;11.10;;;2.90;;
83807;SDS011;73824;40.292;17.998;2024-03-08T03:37:09;10.50;;;3.35;;
83807;SDS011;73824;40.292;17.998;2024-03-08T03:39:37;9.30;;;3.10;;
83807;SDS011;73824;40.292;17.998;2024-03-08T03:42:17;8.75;;;2.90;;
83807;SDS011;73824;40.292;17.998;2024-03-08T03:44:46;9.43;;;3.10;;
83807;SDS011;73824;40.292;17.998;2024-03-08T03:47:13;9.90;;;3.03;;
83807;SDS011;73824;40.292;17.998;2024-03-08T03:49:39;9.57;;;3.13;;
83807;SDS011;73824;40.292;17.998;2024-03-08T03:52:05;10.30;;;2.83;;
83807;SDS011;73824;40.292;17.998;2024-03-08T03:54:31;9.10;;;2.97;;
83807;SDS011;73824;40.292;17.998;2024-03-08T03:56:58;11.15;;;3.40;;
83807;SDS011;73824;40.292;17.998;2024-03-08T03:59:23;9.25;;;3.70;;
83807;SDS011;73824;40.292;17.998;2024-03-08T04:01:49;11.20;;;3.77;;
83807;SDS011;73824;40.292;17.998;2024-03-08T04:04:15;10.48;;;3.75;;
83807;SDS011;73824;40.292;17.998;2024-03-08T04:06:41;10.27;;;3.20;;
83807;SDS011;73824;40.292;17.998;2024-03-08T04:09:07;9.82;;;2.85;;
83807;SDS011;73824;40.292;17.998;2024-03-08T04:11:33;9.63;;;2.80;;
83807;SDS011;73824;40.292;17.998;2024-03-08T04:13:58;8.40;;;2.80;;
83807;SDS011;73824;40.292;17.998;2024-03-08T04:16:24;10.98;;;3.03;;
83807;SDS011;73824;40.292;17.998;2024-03-08T04:18:51;9.43;;;3.70;;
83807;SDS011;73824;40.292;17.998;2024-03-08T04:21:17;17.45;;;6.50;;
83807;SDS011;73824;40.292;17.998;2024-03-08T04:23:44;11.43;;;4.45;;
83807;SDS011;73824;40.292;17.998;2024-03-08T04:26:10;11.63;;;4.22;;
83807;SDS011;73824;40.292;17.998;2024-03-08T04:28:36;13.13;;;4.87;;
83807;SDS011;73824;40.292;17.998;2024-03-08T04:31:02;13.10;;;3.75;;
83807;SDS011;73824;40.292;17.998;2024-03-08T04:33:28;12.05;;;4.30;;
83807;SDS011;73824;40.292;17.998;2024-03-08T04:35:54;14.13;;;5.55;;
83807;SDS011;73824;40.292;17.998;2024-03-08T04:38:19;18.23;;;8.80;;
83807;SDS011;73824;40.292;17.998;2024-03-08T04:40:45;23.87;;;12.03;;
83807;SDS011;73824;40.292;17.998;2024-03-08T04:43:10;15.63;;;7.17;;
83807;SDS011;73824;40.292;17.998;2024-03-08T04:45:36;13.67;;;5.60;;
83807;SDS011;73824;40.292;17.998;2024-03-08T04:48:02;11.50;;;4.53;;
83807;SDS011;73824;40.292;17.998;2024-03-08T04:50:27;11.90;;;5.13;;
83807;SDS011;73824;40.292;17.998;2024-03-08T04:52:56;9.60;;;3.30;;
83807;SDS011;73824;40.292;17.998;2024-03-08T04:55:21;9.07;;;2.75;;
83807;SDS011;73824;40.292;17.998;2024-03-08T04:57:48;10.27;;;3.43;;
83807;SDS011;73824;40.292;17.998;2024-03-08T05:00:14;10.23;;;3.55;;
83807;SDS011;73824;40.292;17.998;2024-03-08T05:02:40;10.20;;;3.60;;
83807;SDS011;73824;40.292;17.998;2024-03-08T05:05:07;9.68;;;3.35;;
83807;SDS011;73824;40.292;17.998;2024-03-08T05:07:35;10.90;;;4.55;;
83807;SDS011;73824;40.292;17.998;2024-03-08T05:10:00;13.17;;;4.37;;
83807;SDS011;73824;40.292;17.998;2024-03-08T05:12:27;12.05;;;3.90;;
83807;SDS011;73824;40.292;17.998;2024-03-08T05:14:53;12.03;;;3.63;;
83807;SDS011;73824;40.292;17.998;2024-03-08T05:17:18;10.63;;;4.22;;
83807;SDS011;73824;40.292;17.998;2024-03-08T05:19:44;9.07;;;2.77;;
83807;SDS011;73824;40.292;17.998;2024-03-08T05:22:10;9.73;;;2.83;;
83807;SDS011;73824;40.292;17.998;2024-03-08T05:24:35;9.70;;;2.80;;
83807;SDS011;73824;40.292;17.998;2024-03-08T05:27:01;9.70;;;2.90;;
83807;SDS011;73824;40.292;17.998;2024-03-08T05:29:28;13.40;;;2.85;;
83807;SDS011;73824;40.292;17.998;2024-03-08T05:31:54;10.38;;;3.42;;
83807;SDS011;73824;40.292;17.998;2024-03-08T05:34:21;10.40;;;3.40;;
83807;SDS011;73824;40.292;17.998;2024-03-08T05:36:47;10.63;;;3.33;;
83807;SDS011;73824;40.292;17.998;2024-03-08T05:39:15;9.73;;;3.33;;
83807;SDS011;73824;40.292;17.998;2024-03-08T05:41:42;11.20;;;3.42;;
83807;SDS011;73824;40.292;17.998;2024-03-08T05:44:08;12.15;;;4.18;;
83807;SDS011;73824;40.292;17.998;2024-03-08T05:46:34;9.63;;;3.67;;
83807;SDS011;73824;40.292;17.998;2024-03-08T05:49:03;10.73;;;3.63;;
83807;SDS011;73824;40.292;17.998;2024-03-08T05:51:35;14.10;;;5.57;;
83807;SDS011;73824;40.292;17.998;2024-03-08T05:54:02;13.52;;;5.60;;
83807;SDS011;73824;40.292;17.998;2024-03-08T05:56:32;14.90;;;4.22;;
83807;SDS011;73824;40.292;17.998;2024-03-08T05:58:58;11.80;;;4.40;;
83807;SDS011;73824;40.292;17.998;2024-03-08T06:01:26;13.17;;;4.27;;
83807;SDS011;73824;40.292;17.998;2024-03-08T06:03:53;13.75;;;4.20;;
83807;SDS011;73824;40.292;17.998;2024-03-08T06:06:21;14.63;;;4.45;;
83807;SDS011;73824;40.292;17.998;2024-03-08T06:08:47;10.23;;;3.78;;
83807;SDS011;73824;40.292;17.998;2024-03-08T06:11:14;11.73;;;4.20;;
83807;SDS011;73824;40.292;17.998;2024-03-08T06:13:42;11.55;;;4.30;;
83807;SDS011;73824;40.292;17.998;2024-03-08T06:16:08;11.10;;;4.28;;
83807;SDS011;73824;40.292;17.998;2024-03-08T06:18:34;13.25;;;4.57;;
83807;SDS011;73824;40.292;17.998;2024-03-08T06:21:06;9.47;;;3.77;;
83807;SDS011;73824;40.292;17.998;2024-03-08T06:23:32;10.90;;;4.75;;
83807;SDS011;73824;40.292;17.998;2024-03-08T06:25:58;10.10;;;4.70;;
83807;SDS011;73824;40.292;17.998;2024-03-08T06:28:24;10.45;;;4.45;;
83807;SDS011;73824;40.292;17.998;2024-03-08T06:30:53;10.70;;;4.28;;
83807;SDS011;73824;40.292;17.998;2024-03-08T06:33:19;11.07;;;3.47;;
83807;SDS011;73824;40.292;17.998;2024-03-08T06:35:47;9.30;;;3.67;;
83807;SDS011;73824;40.292;17.998;2024-03-08T06:38:13;10.18;;;3.40;;
83807;SDS011;73824;40.292;17.998;2024-03-08T06:40:48;8.50;;;3.50;;
83807;SDS011;73824;40.292;17.998;2024-03-08T06:43:41;7.13;;;2.40;;
83807;SDS011;73824;40.292;17.998;2024-03-08T06:46:23;8.75;;;2.67;;
83807;SDS011;73824;40.292;17.998;2024-03-08T06:49:26;10.07;;;2.90;;
83807;SDS011;73824;40.292;17.998;2024-03-08T06:51:58;8.30;;;3.03;;
83807;SDS011;73824;40.292;17.998;2024-03-08T06:54:59;10.50;;;3.33;;
83807;SDS011;73824;40.292;17.998;2024-03-08T06:57:33;7.25;;;3.65;;
83807;SDS011;73824;40.292;17.998;2024-03-08T06:59:58;8.85;;;4.25;;
83807;SDS011;73824;40.292;17.998;2024-03-08T07:02:24;9.10;;;4.30;;
83807;SDS011;73824;40.292;17.998;2024-03-08T07:04:53;8.60;;;5.03;;
83807;SDS011;73824;40.292;17.998;2024-03-08T07:07:24;11.20;;;5.28;;
83807;SDS011;73824;40.292;17.998;2024-03-08T07:09:59;8.23;;;5.32;;
83807;SDS011;73824;40.292;17.998;2024-03-08T07:12:24;9.20;;;5.53;;
83807;SDS011;73824;40.292;17.998;2024-03-08T07:14:51;9.90;;;7.30;;
83807;SDS011;73824;40.292;17.998;2024-03-08T07:17:16;10.83;;;6.17;;
83807;SDS011;73824;40.292;17.998;2024-03-08T07:19:42;11.18;;;7.60;;
83807;SDS011;73824;40.292;17.998;2024-03-08T07:22:08;10.15;;;7.45;;
83807;SDS011;73824;40.292;17.998;2024-03-08T07:24:35;10.70;;;6.60;;
83807;SDS011;73824;40.292;17.998;2024-03-08T07:27:19;10.13;;;7.93;;
83807;SDS011;73824;40.292;17.998;2024-03-08T07:29:45;9.80;;;8.07;;
83807;SDS011;73824;40.292;17.998;2024-03-08T07:32:11;9.97;;;7.67;;
83807;SDS011;73824;40.292;17.998;2024-03-08T07:34:36;8.35;;;6.90;;
83807;SDS011;73824;40.292;17.998;2024-03-08T07:37:02;9.77;;;6.90;;
83807;SDS011;73824;40.292;17.998;2024-03-08T07:39:29;7.72;;;5.45;;
83807;SDS011;73824;40.292;17.998;2024-03-08T07:41:54;7.70;;;5.00;;
83807;SDS011;73824;40.292;17.998;2024-03-08T07:44:20;10.13;;;5.68;;
83807;SDS011;73824;40.292;17.998;2024-03-08T07:46:45;8.33;;;5.73;;
83807;SDS011;73824;40.292;17.998;2024-03-08T07:49:11;8.63;;;5.50;;
83807;SDS011;73824;40.292;17.998;2024-03-08T07:51:37;7.68;;;5.63;;
83807;SDS011;73824;40.292;17.998;2024-03-08T07:54:03;10.70;;;6.78;;
83807;SDS011;73824;40.292;17.998;2024-03-08T07:56:30;10.63;;;6.32;;
83807;SDS011;73824;40.292;17.998;2024-03-08T07:58:56;7.57;;;5.77;;
83807;SDS011;73824;40.292;17.998;2024-03-08T08:01:21;9.35;;;6.38;;
83807;SDS011;73824;40.292;17.998;2024-03-08T08:03:47;8.00;;;4.90;;
83807;SDS011;73824;40.292;17.998;2024-03-08T08:06:14;7.82;;;4.25;;
83807;SDS011;73824;40.292;17.998;2024-03-08T08:08:41;8.98;;;5.18;;
83807;SDS011;73824;40.292;17.998;2024-03-08T08:11:07;7.40;;;4.90;;
83807;SDS011;73824;40.292;17.998;2024-03-08T08:13:34;6.53;;;3.95;;
83807;SDS011;73824;40.292;17.998;2024-03-08T08:16:01;5.33;;;3.23;;
83807;SDS011;73824;40.292;17.998;2024-03-08T08:18:27;6.30;;;3.28;;
83807;SDS011;73824;40.292;17.998;2024-03-08T08:20:54;5.65;;;3.40;;
83807;SDS011;73824;40.292;17.998;2024-03-08T08:23:20;5.97;;;3.17;;
83807;SDS011;73824;40.292;17.998;2024-03-08T08:25:46;8.38;;;3.38;;
83807;SDS011;73824;40.292;17.998;2024-03-08T08:28:16;6.70;;;3.53;;
83807;SDS011;73824;40.292;17.998;2024-03-08T08:30:43;6.32;;;3.63;;
83807;SDS011;73824;40.292;17.998;2024-03-08T08:33:09;6.75;;;3.78;;
83807;SDS011;73824;40.292;17.998;2024-03-08T08:35:35;6.70;;;3.47;;
83807;SDS011;73824;40.292;17.998;2024-03-08T08:38:02;8.02;;;3.90;;
83807;SDS011;73824;40.292;17.998;2024-03-08T08:40:29;5.40;;;2.80;;
83807;SDS011;73824;40.292;17.998;2024-03-08T08:42:57;9.98;;;6.47;;
83807;SDS011;73824;40.292;17.998;2024-03-08T08:45:23;6.30;;;4.68;;
83807;SDS011;73824;40.292;17.998;2024-03-08T08:47:48;4.93;;;3.20;;
83807;SDS011;73824;40.292;17.998;2024-03-08T08:50:14;6.35;;;2.97;;
83807;SDS011;73824;40.292;17.998;2024-03-08T08:52:41;5.55;;;3.47;;
83807;SDS011;73824;40.292;17.998;2024-03-08T08:55:10;9.00;;;3.50;;
83807;SDS011;73824;40.292;17.998;2024-03-08T08:57:42;5.15;;;2.40;;
83807;SDS011;73824;40.292;17.998;2024-03-08T09:00:09;5.88;;;2.70;;
83807;SDS011;73824;40.292;17.998;2024-03-08T09:02:40;4.45;;;2.40;;
83807;SDS011;73824;40.292;17.998;2024-03-08T09:05:06;6.35;;;2.67;;
83807;SDS011;73824;40.292;17.998;2024-03-08T09:07:36;4.50;;;2.30;;
83807;SDS011;73824;40.292;17.998;2024-03-08T09:10:02;4.63;;;2.53;;
83807;SDS011;73824;40.292;17.998;2024-03-08T09:12:29;5.63;;;2.22;;
83807;SDS011;73824;40.292;17.998;2024-03-08T09:14:54;4.87;;;2.10;;
83807;SDS011;73824;40.292;17.998;2024-03-08T09:17:20;5.70;;;3.60;;
83807;SDS011;73824;40.292;17.998;2024-03-08T09:19:49;5.40;;;2.57;;
83807;SDS011;73824;40.292;17.998;2024-03-08T09:22:15;5.37;;;3.00;;
83807;SDS011;73824;40.292;17.998;2024-03-08T09:24:40;5.13;;;3.15;;
83807;SDS011;73824;40.292;17.998;2024-03-08T09:27:08;6.97;;;3.65;;
83807;SDS011;73824;40.292;17.998;2024-03-08T09:29:35;5.97;;;2.75;;
83807;SDS011;73824;40.292;17.998;2024-03-08T09:32:01;4.30;;;2.27;;
83807;SDS011;73824;40.292;17.998;2024-03-08T09:34:26;4.45;;;2.00;;
83807;SDS011;73824;40.292;17.998;2024-03-08T09:36:55;4.18;;;1.88;;
83807;SDS011;73824;40.292;17.998;2024-03-08T09:39:21;4.65;;;1.55;;
83807;SDS011;73824;40.292;17.998;2024-03-08T09:41:48;3.97;;;1.10;;
83807;SDS011;73824;40.292;17.998;2024-03-08T09:44:49;5.47;;;2.05;;
83807;SDS011;73824;40.292;17.998;2024-03-08T09:47:41;3.90;;;1.00;;
83807;SDS011;73824;40.292;17.998;2024-03-08T09:50:14;5.05;;;0.90;;
83807;SDS011;73824;40.292;17.998;2024-03-08T09:52:51;3.60;;;1.00;;
83807;SDS011;73824;40.292;17.998;2024-03-08T09:55:30;4.50;;;1.08;;
83807;SDS011;73824;40.292;17.998;2024-03-08T09:58:43;6.45;;;1.10;;
83807;SDS011;73824;40.292;17.998;2024-03-08T10:01:36;4.40;;;1.17;;
83807;SDS011;73824;40.292;17.998;2024-03-08T10:04:24;4.20;;;1.10;;
83807;SDS011;73824;40.292;17.998;2024-03-08T10:07:16;6.13;;;1.42;;
83807;SDS011;73824;40.292;17.998;2024-03-08T10:10:06;4.15;;;1.05;;
83807;SDS011;73824;40.292;17.998;2024-03-08T10:12:41;5.20;;;1.27;;
83807;SDS011;73824;40.292;17.998;2024-03-08T10:15:33;3.70;;;0.90;;
83807;SDS011;73824;40.292;17.998;2024-03-08T10:18:03;3.92;;;1.00;;
83807;SDS011;73824;40.292;17.998;2024-03-08T10:20:31;4.85;;;1.20;;
83807;SDS011;73824;40.292;17.998;2024-03-08T10:23:10;5.07;;;1.20;;
83807;SDS011;73824;40.292;17.998;2024-03-08T10:25:39;6.25;;;1.27;;
83807;SDS011;73824;40.292;17.998;2024-03-08T10:28:05;5.15;;;1.42;;
83807;SDS011;73824;40.292;17.998;2024-03-08T10:30:33;5.00;;;1.40;;
83807;SDS011;73824;40.292;17.998;2024-03-08T10:37:03;5.97;;;1.27;;
83807;SDS011;73824;40.292;17.998;2024-03-08T10:54:10;4.50;;;1.02;;
83807;SDS011;73824;40.292;17.998;2024-03-08T10:57:09;4.50;;;1.25;;
83807;SDS011;73824;40.292;17.998;2024-03-08T10:59:41;4.53;;;1.00;;
83807;SDS011;73824;40.292;17.998;2024-03-08T11:13:38;4.18;;;1.10;;
83807;SDS011;73824;40.292;17.998;2024-03-08T11:16:45;4.00;;;0.90;;
83807;SDS011;73824;40.292;17.998;2024-03-08T11:20:25;5.70;;;1.20;;
83807;SDS011;73824;40.292;17.998;2024-03-08T11:23:35;4.95;;;1.13;;
83807;SDS011;73824;40.292;17.998;2024-03-08T11:30:15;5.20;;;1.50;;
83807;SDS011;73824;40.292;17.998;2024-03-08T11:33:16;6.60;;;1.67;;
83807;SDS011;73824;40.292;17.998;2024-03-08T11:36:44;3.60;;;0.70;;
83807;SDS011;73824;40.292;17.998;2024-03-08T11:39:23;4.60;;;0.88;;
83807;SDS011;73824;40.292;17.998;2024-03-08T11:59:27;6.97;;;2.55;;
83807;SDS011;73824;40.292;17.998;2024-03-08T12:05:16;11.27;;;4.38;;
83807;SDS011;73824;40.292;17.998;2024-03-08T12:08:03;7.60;;;2.30;;
83807;SDS011;73824;40.292;17.998;2024-03-08T12:21:26;8.13;;;2.60;;
83807;SDS011;73824;40.292;17.998;2024-03-08T12:24:36;5.03;;;1.17;;
83807;SDS011;73824;40.292;17.998;2024-03-08T12:27:21;10.45;;;2.53;;
83807;SDS011;73824;40.292;17.998;2024-03-08T12:32:55;4.03;;;0.70;;
83807;SDS011;73824;40.292;17.998;2024-03-08T12:35:22;10.75;;;4.03;;
83807;SDS011;73824;40.292;17.998;2024-03-08T12:38:13;8.00;;;2.27;;
83807;SDS011;73824;40.292;17.998;2024-03-08T12:40:41;8.43;;;2.42;;
83807;SDS011;73824;40.292;17.998;2024-03-08T12:43:07;5.80;;;1.60;;
83807;SDS011;73824;40.292;17.998;2024-03-08T12:45:37;4.47;;;0.80;;
83807;SDS011;73824;40.292;17.998;2024-03-08T12:48:11;4.38;;;1.17;;
83807;SDS011;73824;40.292;17.998;2024-03-08T12:50:41;5.28;;;0.57;;
83807;SDS011;73824;40.292;17.998;2024-03-08T12:53:13;43.13;;;13.80;;
83807;SDS011;73824;40.292;17.998;2024-03-08T12:55:39;8.25;;;1.83;;
83807;SDS011;73824;40.292;17.998;2024-03-08T12:58:06;9.50;;;3.05;;
83807;SDS011;73824;40.292;17.998;2024-03-08T13:01:02;4.45;;;0.90;;
83807;SDS011;73824;40.292;17.998;2024-03-08T13:03:39;3.85;;;0.63;;
83807;SDS011;73824;40.292;17.998;2024-03-08T13:06:33;4.40;;;0.80;;
83807;SDS011;73824;40.292;17.998;2024-03-08T13:09:48;3.72;;;0.63;;
83807;SDS011;73824;40.292;17.998;2024-03-08T13:18:33;10.68;;;4.13;;
83807;SDS011;73824;40.292;17.998;2024-03-08T13:21:11;6.85;;;2.40;;
83807;SDS011;73824;40.292;17.998;2024-03-08T13:23:54;6.28;;;1.70;;
83807;SDS011;73824;40.292;17.998;2024-03-08T13:26:29;8.00;;;1.92;;
83807;SDS011;73824;40.292;17.998;2024-03-08T13:32:26;6.70;;;1.50;;
83807;SDS011;73824;40.292;17.998;2024-03-08T13:35:33;6.38;;;1.50;;
83807;SDS011;73824;40.292;17.998;2024-03-08T13:38:03;8.65;;;2.97;;
83807;SDS011;73824;40.292;17.998;2024-03-08T13:40:56;6.70;;;2.10;;
83807;SDS011;73824;40.292;17.998;2024-03-08T13:43:58;6.85;;;1.80;;
83807;SDS011;73824;40.292;17.998;2024-03-08T13:47:20;10.27;;;3.55;;
83807;SDS011;73824;40.292;17.998;2024-03-08T13:49:59;6.75;;;2.35;;
83807;SDS011;73824;40.292;17.998;2024-03-08T13:52:26;5.05;;;1.13;;
83807;SDS011;73824;40.292;17.998;2024-03-08T13:54:54;5.22;;;1.30;;
83807;SDS011;73824;40.292;17.998;2024-03-08T13:57:28;5.97;;;1.92;;
83807;SDS011;73824;40.292;17.998;2024-03-08T14:00:53;10.75;;;3.92;;
83807;SDS011;73824;40.292;17.998;2024-03-08T14:03:44;6.18;;;1.70;;
83807;SDS011;73824;40.292;17.998;2024-03-08T14:06:14;6.22;;;1.63;;
83807;SDS011;73824;40.292;17.998;2024-03-08T14:08:39;6.88;;;1.58;;
83807;SDS011;73824;40.292;17.998;2024-03-08T14:11:06;3.47;;;0.70;;
83807;SDS011;73824;40.292;17.998;2024-03-08T14:14:03;5.85;;;1.40;;
83807;SDS011;73824;40.292;17.998;2024-03-08T14:17:09;4.88;;;1.40;;
83807;SDS011;73824;40.292;17.998;2024-03-08T14:20:08;5.65;;;1.30;;
83807;SDS011;73824;40.292;17.998;2024-03-08T14:22:43;5.05;;;1.20;;
83807;SDS011;73824;40.292;17.998;2024-03-08T14:25:49;5.43;;;1.60;;
83807;SDS011;73824;40.292;17.998;2024-03-08T14:28:48;7.95;;;2.72;;
83807;SDS011;73824;40.292;17.998;2024-03-08T14:31:25;8.30;;;2.50;;
83807;SDS011;73824;40.292;17.998;2024-03-08T14:33:53;5.88;;;1.80;;
83807;SDS011;73824;40.292;17.998;2024-03-08T14:36:19;6.78;;;1.48;;
83807;SDS011;73824;40.292;17.998;2024-03-08T14:38:47;5.57;;;1.48;;
83807;SDS011;73824;40.292;17.998;2024-03-08T14:41:13;11.73;;;4.65;;
83807;SDS011;73824;40.292;17.998;2024-03-08T14:43:42;7.70;;;2.97;;
83807;SDS011;73824;40.292;17.998;2024-03-08T14:46:11;7.22;;;1.98;;
83807;SDS011;73824;40.292;17.998;2024-03-08T14:48:46;5.85;;;1.45;;
83807;SDS011;73824;40.292;17.998;2024-03-08T14:51:38;7.38;;;1.30;;
83807;SDS011;73824;40.292;17.998;2024-03-08T14:54:13;3.70;;;0.75;;
83807;SDS011;73824;40.292;17.998;2024-03-08T14:56:48;6.18;;;1.20;;
83807;SDS011;73824;40.292;17.998;2024-03-08T14:59:25;5.72;;;1.52;;
83807;SDS011;73824;40.292;17.998;2024-03-08T15:01:56;9.00;;;3.08;;
83807;SDS011;73824;40.292;17.998;2024-03-08T15:04:31;8.63;;;3.45;;
83807;SDS011;73824;40.292;17.998;2024-03-08T15:07:00;7.90;;;2.70;;
83807;SDS011;73824;40.292;17.998;2024-03-08T15:09:27;8.48;;;1.90;;
83807;SDS011;73824;40.292;17.998;2024-03-08T15:11:53;5.43;;;1.25;;
83807;SDS011;73824;40.292;17.998;2024-03-08T15:14:22;5.45;;;1.50;;
83807;SDS011;73824;40.292;17.998;2024-03-08T15:16:51;5.22;;;1.15;;
83807;SDS011;73824;40.292;17.998;2024-03-08T15:19:17;5.45;;;1.00;;
83807;SDS011;73824;40.292;17.998;2024-03-08T15:21:46;6.95;;;1.15;;
83807;SDS011;73824;40.292;17.998;2024-03-08T15:24:15;5.90;;;1.42;;
83807;SDS011;73824;40.292;17.998;2024-03-08T15:26:46;7.85;;;1.40;;
83807;SDS011;73824;40.292;17.998;2024-03-08T15:29:15;5.53;;;1.13;;
83807;SDS011;73824;40.292;17.998;2024-03-08T15:31:40;5.65;;;1.30;;
83807;SDS011;73824;40.292;17.998;2024-03-08T15:34:09;6.45;;;1.80;;
83807;SDS011;73824;40.292;17.998;2024-03-08T15:36:36;6.13;;;1.73;;
83807;SDS011;73824;40.292;17.998;2024-03-08T15:39:02;7.80;;;2.00;;
83807;SDS011;73824;40.292;17.998;2024-03-08T15:41:28;7.93;;;2.10;;
83807;SDS011;73824;40.292;17.998;2024-03-08T15:43:56;6.25;;;1.20;;
83807;SDS011;73824;40.292;17.998;2024-03-08T15:46:24;5.83;;;1.00;;
83807;SDS011;73824;40.292;17.998;2024-03-08T15:48:53;13.27;;;3.10;;
83807;SDS011;73824;40.292;17.998;2024-03-08T15:51:18;8.52;;;2.25;;
83807;SDS011;73824;40.292;17.998;2024-03-08T15:53:44;21.33;;;10.30;;
83807;SDS011;73824;40.292;17.998;2024-03-08T15:56:18;8.00;;;2.45;;
83807;SDS011;73824;40.292;17.998;2024-03-08T15:58:45;7.30;;;2.15;;
83807;SDS011;73824;40.292;17.998;2024-03-08T16:01:10;6.30;;;1.90;;
83807;SDS011;73824;40.292;17.998;2024-03-08T16:03:37;7.15;;;2.30;;
83807;SDS011;73824;40.292;17.998;2024-03-08T16:06:02;6.75;;;1.33;;
83807;SDS011;73824;40.292;17.998;2024-03-08T16:08:29;6.70;;;1.77;;
83807;SDS011;73824;40.292;17.998;2024-03-08T16:10:57;5.88;;;1.15;;
83807;SDS011;73824;40.292;17.998;2024-03-08T16:13:25;8.10;;;1.73;;
83807;SDS011;73824;40.292;17.998;2024-03-08T16:15:53;7.70;;;1.70;;
83807;SDS011;73824;40.292;17.998;2024-03-08T16:18:21;6.88;;;2.22;;
83807;SDS011;73824;40.292;17.998;2024-03-08T16:20:54;7.20;;;2.80;;